CheckWX is a tool to help pilots better visualize weather data.  It is not intended as a substitute for an official pre-flight weather briefing.

07:34:40 UTC

EGTE TAF
Exeter International Airport
Exeter, United Kingdom
TAF EGTE 060634Z 0606/0615 22013KT 9999 FEW012 SCT025 PROB30 TEMPO 0606/0611 7000 RA BKN012 PROB40 TEMPO 0613/0615 25016G26KT 7000 SHRA

Dec-6@
06:00 UTC

Dec-6 @ 06:00 UTC

Dec-6@
15:00 UTC

Dec-6 @ 15:00 UTC

TAF EGTE 060634Z 0606/0615 22013KT 9999 FEW012 SCT025
Wind
  • 220° at 13 KTS
Cloud Levels
  • Few at 1,200' AGL
  • Scattered at 2,500' AGL

Dec-6@
06:00 UTC

Dec-6 @ 06:00 UTC

Dec-6@
11:00 UTC

Dec-6 @ 11:00 UTC

PROB30 TEMPO 0606/0611 7000 RA BKN012

Temporary - 30% Likelihood

Temporary - 30% Likelihood during this time.

Conditions
Rain
Cloud Levels
  • Broken at 1,200' AGL

Dec-6@
13:00 UTC

Dec-6 @ 13:00 UTC

Dec-6@
15:00 UTC

Dec-6 @ 15:00 UTC

PROB40 TEMPO 0613/0615 25016G26KT 7000 SHRA

Temporary - 40% Likelihood

Temporary - 40% Likelihood during this time.

Wind
  • 250° at 16 KTS
  • {Gusting to 26 KTS
Conditions
Rain